American Glory — WDA8860 — position and weather

sailwx.info

Track history (hours):
 
Tides and Currents Weather Stations Pressure Air Temp Water Temp Dewpoint Dewpoint Depression Visibility Wind Speed Wind Dir Waves Ship Positions

American Glory

Owner: AMERICAN CRUISE LINES INC, DELMAR, DE. More information available from US FCC via Universal Licensing System and Coast Guard Vessel Documentation Center.

Last reported at 2015-Jul-04 06:32 UTC. Time now 2015-Jul-04 06:57 UTC.
Position N 41°38' W 070°55'.

Length 54 m; draft 2.1 m.

Type: Passenger vessel. MMSI: 366858820.

Date/timePositionNaut miles runAvg speedWind from/ knotsBaromVisibWave heightAir tempDewpointWater temp
2015-Jul-04 06:32N 41°38' W 070°55'0 0.0
2015-Jul-04 05:32N 41°38' W 070°55'0 0.0
2015-Jul-04 04:32N 41°38' W 070°55'0 0.0
2015-Jul-04 03:32N 41°38' W 070°55'0 0.0
2015-Jul-04 02:29N 41°38' W 070°55'0 0.0
2015-Jul-04 01:29N 41°38' W 070°55'0 0.0
2015-Jul-04 00:32N 41°38' W 070°55'0 0.0
2015-Jul-03 23:29N 41°38' W 070°55'0 0.0
2015-Jul-03 07:17N 41°38' W 070°55'4 0.2
2015-Jul-02 14:32N 41°35' W 070°53'9 9.1
2015-Jul-02 13:33N 41°26' W 070°50'8 8.0
2015-Jul-02 12:30N 41°29' W 070°39'3 0.4
2015-Jul-02 03:33N 41°27' W 070°36'0 0.0
2015-Jul-02 01:06N 41°27' W 070°36'0 0.0
2015-Jul-02 00:30N 41°27' W 070°36'0 0.0
2015-Jul-01 08:24N 41°27' W 070°36'0 0.0
2015-Jul-01 07:33N 41°27' W 070°36'0 0.0
2015-Jul-01 06:09N 41°27' W 070°36'0 0.0
2015-Jul-01 04:09N 41°27' W 070°36'0 0.0
2015-Jul-01 03:30N 41°27' W 070°36'0 0.1
2015-Jun-30 23:33N 41°28' W 070°36'8 8.3
2015-Jun-30 22:33N 41°28' W 070°24'9 9.1
2015-Jun-30 21:33N 41°25' W 070°13'9 9.3
2015-Jun-30 20:33N 41°18' W 070°06'1 0.3
2015-Jun-30 18:26N 41°17' W 070°05'0 0.0
2015-Jun-30 17:32N 41°17' W 070°05'0 0.0
2015-Jun-30 16:32N 41°17' W 070°05'0 0.0
2015-Jun-30 15:17N 41°17' W 070°05'0 0.0
2015-Jun-30 14:32N 41°17' W 070°05'0 0.0
2015-Jun-30 13:32N 41°17' W 070°05'0 0.0
2015-Jun-30 12:32N 41°17' W 070°05'0 0.0
2015-Jun-30 11:32N 41°17' W 070°05'0 0.2
2015-Jun-30 10:33N 41°17' W 070°05'6 6.4
2015-Jun-30 09:33N 41°23' W 070°09'9 9.1
2015-Jun-30 08:33N 41°27' W 070°20'9 9.3
2015-Jun-30 07:33N 41°29' W 070°32'7 7.4
2015-Jun-30 06:34N 41°28' W 070°42'7 6.9
2015-Jun-30 05:33N 41°26' W 070°51'7 7.4
2015-Jun-30 04:33N 41°33' W 070°45'8 7.7
2015-Jun-30 03:33N 41°40' W 070°41'  
Track history (hours):
 
Tides and Currents Weather Stations Pressure Air Temp Water Temp Dewpoint Dewpoint Depression Visibility Wind Speed Wind Dir Waves Ship Positions

American Glory

Owner: AMERICAN CRUISE LINES INC, DELMAR, DE. More information available from US FCC via Universal Licensing System and Coast Guard Vessel Documentation Center.

Last reported at 2015-Jul-04 06:32 UTC. Time now 2015-Jul-04 06:57 UTC.
Position N 41°38' W 070°55'.

Length 54 m; draft 2.1 m.

Type: Passenger vessel. MMSI: 366858820.

Date/timePositionNaut miles runAvg speedWind from/ knotsBaromVisibWave heightAir tempDewpointWater temp
2015-Jul-04 06:32N 41°38' W 070°55'0 0.0
2015-Jul-04 05:32N 41°38' W 070°55'0 0.0
2015-Jul-04 04:32N 41°38' W 070°55'0 0.0
2015-Jul-04 03:32N 41°38' W 070°55'0 0.0
2015-Jul-04 02:29N 41°38' W 070°55'0 0.0
2015-Jul-04 01:29N 41°38' W 070°55'0 0.0
2015-Jul-04 00:32N 41°38' W 070°55'0 0.0
2015-Jul-03 23:29N 41°38' W 070°55'0 0.0
2015-Jul-03 07:17N 41°38' W 070°55'4 0.2
2015-Jul-02 14:32N 41°35' W 070°53'9 9.1
2015-Jul-02 13:33N 41°26' W 070°50'8 8.0
2015-Jul-02 12:30N 41°29' W 070°39'3 0.4
2015-Jul-02 03:33N 41°27' W 070°36'0 0.0
2015-Jul-02 01:06N 41°27' W 070°36'0 0.0
2015-Jul-02 00:30N 41°27' W 070°36'0 0.0
2015-Jul-01 08:24N 41°27' W 070°36'0 0.0
2015-Jul-01 07:33N 41°27' W 070°36'0 0.0
2015-Jul-01 06:09N 41°27' W 070°36'0 0.0
2015-Jul-01 04:09N 41°27' W 070°36'0 0.0
2015-Jul-01 03:30N 41°27' W 070°36'0 0.1
2015-Jun-30 23:33N 41°28' W 070°36'8 8.3
2015-Jun-30 22:33N 41°28' W 070°24'9 9.1
2015-Jun-30 21:33N 41°25' W 070°13'9 9.3
2015-Jun-30 20:33N 41°18' W 070°06'1 0.3
2015-Jun-30 18:26N 41°17' W 070°05'0 0.0
2015-Jun-30 17:32N 41°17' W 070°05'0 0.0
2015-Jun-30 16:32N 41°17' W 070°05'0 0.0
2015-Jun-30 15:17N 41°17' W 070°05'0 0.0
2015-Jun-30 14:32N 41°17' W 070°05'0 0.0
2015-Jun-30 13:32N 41°17' W 070°05'0 0.0
2015-Jun-30 12:32N 41°17' W 070°05'0 0.0
2015-Jun-30 11:32N 41°17' W 070°05'0 0.2
2015-Jun-30 10:33N 41°17' W 070°05'6 6.4
2015-Jun-30 09:33N 41°23' W 070°09'9 9.1
2015-Jun-30 08:33N 41°27' W 070°20'9 9.3
2015-Jun-30 07:33N 41°29' W 070°32'7 7.4
2015-Jun-30 06:34N 41°28' W 070°42'7 6.9
2015-Jun-30 05:33N 41°26' W 070°51'7 7.4
2015-Jun-30 04:33N 41°33' W 070°45'8 7.7
2015-Jun-30 03:33N 41°40' W 070°41'  

Dump ship's entire track history